sensor_id;sensor_type;location;lat;lon;timestamp;pressure;altitude;pressure_sealevel;temperature;humidity
54248;BME280;40161;39.768;2.722;2023-03-18T00:01:13;101099.81;;;11.61;93.14
54248;BME280;40161;39.768;2.722;2023-03-18T00:03:39;101083.25;;;11.77;92.87
54248;BME280;40161;39.768;2.722;2023-03-18T00:06:10;101053.00;;;11.77;90.64
54248;BME280;40161;39.768;2.722;2023-03-18T00:08:38;101091.84;;;11.95;89.74
54248;BME280;40161;39.768;2.722;2023-03-18T00:11:05;101089.34;;;11.67;90.40
54248;BME280;40161;39.768;2.722;2023-03-18T00:13:33;101100.56;;;11.58;91.87
54248;BME280;40161;39.768;2.722;2023-03-18T00:16:00;101093.16;;;11.62;94.54
54248;BME280;40161;39.768;2.722;2023-03-18T00:18:27;101093.59;;;11.84;92.93
54248;BME280;40161;39.768;2.722;2023-03-18T00:20:52;101089.03;;;11.92;91.74
54248;BME280;40161;39.768;2.722;2023-03-18T00:23:18;101080.22;;;11.63;90.32
54248;BME280;40161;39.768;2.722;2023-03-18T00:25:46;101089.94;;;11.80;91.23
54248;BME280;40161;39.768;2.722;2023-03-18T00:28:13;101076.25;;;11.83;91.05
54248;BME280;40161;39.768;2.722;2023-03-18T00:30:39;101076.56;;;11.98;90.14
54248;BME280;40161;39.768;2.722;2023-03-18T00:33:09;101088.09;;;12.07;89.16
54248;BME280;40161;39.768;2.722;2023-03-18T00:35:35;101093.94;;;11.82;88.36
54248;BME280;40161;39.768;2.722;2023-03-18T00:38:02;101090.53;;;11.70;91.22
54248;BME280;40161;39.768;2.722;2023-03-18T00:40:32;101065.94;;;11.77;89.67
54248;BME280;40161;39.768;2.722;2023-03-18T00:43:30;101098.00;;;11.69;88.22
54248;BME280;40161;39.768;2.722;2023-03-18T00:46:00;101082.13;;;11.39;92.00
54248;BME280;40161;39.768;2.722;2023-03-18T00:48:26;101090.38;;;11.39;92.87
54248;BME280;40161;39.768;2.722;2023-03-18T00:50:52;101093.00;;;11.32;94.11
54248;BME280;40161;39.768;2.722;2023-03-18T00:53:18;101094.72;;;11.40;94.15
54248;BME280;40161;39.768;2.722;2023-03-18T00:55:44;101088.19;;;11.49;93.92
54248;BME280;40161;39.768;2.722;2023-03-18T00:58:10;101089.00;;;11.30;93.37
54248;BME280;40161;39.768;2.722;2023-03-18T01:00:37;101082.56;;;11.22;93.44
54248;BME280;40161;39.768;2.722;2023-03-18T01:03:04;101074.69;;;11.40;94.37
54248;BME280;40161;39.768;2.722;2023-03-18T01:05:32;101077.50;;;11.44;92.64
54248;BME280;40161;39.768;2.722;2023-03-18T01:07:58;101068.53;;;11.27;92.55
54248;BME280;40161;39.768;2.722;2023-03-18T01:10:25;101070.94;;;11.09;93.51
54248;BME280;40161;39.768;2.722;2023-03-18T01:12:51;101059.13;;;10.89;94.46
54248;BME280;40161;39.768;2.722;2023-03-18T01:15:19;101056.75;;;10.88;95.22
54248;BME280;40161;39.768;2.722;2023-03-18T01:17:46;101078.38;;;11.09;96.05
54248;BME280;40161;39.768;2.722;2023-03-18T01:20:14;101059.22;;;11.12;93.75
54248;BME280;40161;39.768;2.722;2023-03-18T01:22:41;101080.13;;;11.36;93.78
54248;BME280;40161;39.768;2.722;2023-03-18T01:25:08;101048.59;;;11.30;93.07
54248;BME280;40161;39.768;2.722;2023-03-18T01:27:35;101054.91;;;11.11;91.25
54248;BME280;40161;39.768;2.722;2023-03-18T01:30:01;101076.53;;;10.97;92.78
54248;BME280;40161;39.768;2.722;2023-03-18T01:32:28;101080.97;;;11.02;94.89
54248;BME280;40161;39.768;2.722;2023-03-18T01:34:53;101079.19;;;11.29;93.33
54248;BME280;40161;39.768;2.722;2023-03-18T01:37:19;101079.25;;;11.32;91.83
54248;BME280;40161;39.768;2.722;2023-03-18T01:39:46;101067.09;;;11.33;90.75
54248;BME280;40161;39.768;2.722;2023-03-18T01:42:12;101062.38;;;11.34;91.17
54248;BME280;40161;39.768;2.722;2023-03-18T01:44:39;101061.47;;;11.26;90.09
54248;BME280;40161;39.768;2.722;2023-03-18T01:47:04;101065.22;;;11.18;92.00
54248;BME280;40161;39.768;2.722;2023-03-18T01:49:36;101065.13;;;11.14;92.75
54248;BME280;40161;39.768;2.722;2023-03-18T01:52:26;101065.06;;;10.91;93.72
54248;BME280;40161;39.768;2.722;2023-03-18T01:54:58;101063.84;;;10.89;95.19
54248;BME280;40161;39.768;2.722;2023-03-18T01:57:25;101062.59;;;10.86;95.52
54248;BME280;40161;39.768;2.722;2023-03-18T01:59:52;101065.06;;;10.91;94.94
54248;BME280;40161;39.768;2.722;2023-03-18T02:02:20;101048.78;;;10.83;93.90
54248;BME280;40161;39.768;2.722;2023-03-18T02:04:54;101053.63;;;10.89;95.02
54248;BME280;40161;39.768;2.722;2023-03-18T02:07:26;101045.06;;;10.91;95.51
54248;BME280;40161;39.768;2.722;2023-03-18T02:09:53;101046.06;;;11.02;94.45
54248;BME280;40161;39.768;2.722;2023-03-18T02:12:27;101048.66;;;10.95;95.13
54248;BME280;40161;39.768;2.722;2023-03-18T02:14:54;101043.22;;;11.18;94.76
54248;BME280;40161;39.768;2.722;2023-03-18T02:17:23;101058.91;;;11.17;92.23
54248;BME280;40161;39.768;2.722;2023-03-18T02:22:44;101041.06;;;11.27;91.41
54248;BME280;40161;39.768;2.722;2023-03-18T02:27:47;101016.06;;;11.13;92.84
54248;BME280;40161;39.768;2.722;2023-03-18T02:30:19;101016.28;;;11.04;91.32
54248;BME280;40161;39.768;2.722;2023-03-18T02:32:48;101006.38;;;10.80;92.85
54248;BME280;40161;39.768;2.722;2023-03-18T02:35:15;101001.91;;;10.91;94.78
54248;BME280;40161;39.768;2.722;2023-03-18T02:37:40;100993.69;;;10.91;92.08
54248;BME280;40161;39.768;2.722;2023-03-18T02:40:17;100927.28;;;10.47;93.21
54248;BME280;40161;39.768;2.722;2023-03-18T02:42:44;100909.31;;;10.50;92.82
54248;BME280;40161;39.768;2.722;2023-03-18T02:47:50;101003.25;;;11.21;91.18
54248;BME280;40161;39.768;2.722;2023-03-18T02:50:17;101001.69;;;11.20;91.44
54248;BME280;40161;39.768;2.722;2023-03-18T02:52:42;100990.22;;;10.95;91.37
54248;BME280;40161;39.768;2.722;2023-03-18T02:55:08;100992.16;;;10.75;92.16
54248;BME280;40161;39.768;2.722;2023-03-18T02:57:33;101012.81;;;10.88;93.25
54248;BME280;40161;39.768;2.722;2023-03-18T02:59:59;101020.78;;;11.12;91.36
54248;BME280;40161;39.768;2.722;2023-03-18T03:02:25;101010.38;;;11.02;87.62
54248;BME280;40161;39.768;2.722;2023-03-18T03:04:51;101019.88;;;10.69;92.14
54248;BME280;40161;39.768;2.722;2023-03-18T03:07:16;101020.69;;;10.89;91.82
54248;BME280;40161;39.768;2.722;2023-03-18T03:09:42;101021.84;;;11.08;90.97
54248;BME280;40161;39.768;2.722;2023-03-18T03:12:08;101019.75;;;11.21;90.41
54248;BME280;40161;39.768;2.722;2023-03-18T03:14:33;100989.03;;;10.96;90.04
54248;BME280;40161;39.768;2.722;2023-03-18T03:16:59;101004.09;;;11.02;90.26
54248;BME280;40161;39.768;2.722;2023-03-18T03:19:24;101005.16;;;10.97;90.90
54248;BME280;40161;39.768;2.722;2023-03-18T03:21:50;100992.88;;;10.91;91.60
54248;BME280;40161;39.768;2.722;2023-03-18T03:24:16;101005.66;;;11.03;91.54
54248;BME280;40161;39.768;2.722;2023-03-18T03:26:42;100989.09;;;10.80;93.09
54248;BME280;40161;39.768;2.722;2023-03-18T03:29:07;100992.34;;;10.66;93.55
54248;BME280;40161;39.768;2.722;2023-03-18T03:31:34;100986.16;;;10.69;96.12
54248;BME280;40161;39.768;2.722;2023-03-18T03:33:59;100984.41;;;10.80;93.96
54248;BME280;40161;39.768;2.722;2023-03-18T03:36:25;100950.03;;;10.48;94.52
54248;BME280;40161;39.768;2.722;2023-03-18T03:38:51;100982.59;;;10.68;95.60
54248;BME280;40161;39.768;2.722;2023-03-18T03:41:18;100979.19;;;10.56;94.98
54248;BME280;40161;39.768;2.722;2023-03-18T03:43:43;100999.88;;;10.50;96.85
54248;BME280;40161;39.768;2.722;2023-03-18T03:46:10;101004.81;;;10.44;97.93
54248;BME280;40161;39.768;2.722;2023-03-18T03:48:37;101010.38;;;10.48;97.65
54248;BME280;40161;39.768;2.722;2023-03-18T03:51:02;101012.50;;;10.54;98.50
54248;BME280;40161;39.768;2.722;2023-03-18T03:53:28;101017.81;;;10.47;98.00
54248;BME280;40161;39.768;2.722;2023-03-18T03:55:54;101028.88;;;10.51;98.66
54248;BME280;40161;39.768;2.722;2023-03-18T03:58:20;101038.16;;;10.62;99.09
54248;BME280;40161;39.768;2.722;2023-03-18T04:00:46;101016.16;;;10.78;97.06
54248;BME280;40161;39.768;2.722;2023-03-18T04:03:12;101030.81;;;11.05;94.03
54248;BME280;40161;39.768;2.722;2023-03-18T04:05:38;101032.47;;;11.09;93.34
54248;BME280;40161;39.768;2.722;2023-03-18T04:08:04;101042.94;;;11.04;93.43
54248;BME280;40161;39.768;2.722;2023-03-18T04:10:29;101026.78;;;10.99;95.00
54248;BME280;40161;39.768;2.722;2023-03-18T04:12:55;101043.75;;;11.04;94.46
54248;BME280;40161;39.768;2.722;2023-03-18T04:15:21;101026.19;;;10.89;93.94
54248;BME280;40161;39.768;2.722;2023-03-18T04:17:50;101039.88;;;10.70;94.44
54248;BME280;40161;39.768;2.722;2023-03-18T04:20:16;101031.22;;;10.68;96.36
54248;BME280;40161;39.768;2.722;2023-03-18T04:22:43;101025.59;;;10.80;96.14
54248;BME280;40161;39.768;2.722;2023-03-18T04:25:09;101020.84;;;10.77;96.65
54248;BME280;40161;39.768;2.722;2023-03-18T04:27:35;101021.47;;;10.71;96.55
54248;BME280;40161;39.768;2.722;2023-03-18T04:30:04;101030.50;;;10.90;96.46
54248;BME280;40161;39.768;2.722;2023-03-18T04:32:29;101005.94;;;10.78;96.67
54248;BME280;40161;39.768;2.722;2023-03-18T04:34:55;100999.66;;;10.97;95.31
54248;BME280;40161;39.768;2.722;2023-03-18T04:37:20;101023.72;;;11.04;94.29
54248;BME280;40161;39.768;2.722;2023-03-18T04:39:47;101018.81;;;10.74;95.23
54248;BME280;40161;39.768;2.722;2023-03-18T04:42:13;101017.66;;;10.95;96.51
54248;BME280;40161;39.768;2.722;2023-03-18T04:44:38;101019.31;;;10.99;95.00
54248;BME280;40161;39.768;2.722;2023-03-18T04:47:04;101016.91;;;10.98;95.41
54248;BME280;40161;39.768;2.722;2023-03-18T04:49:31;101010.50;;;10.90;94.48
54248;BME280;40161;39.768;2.722;2023-03-18T04:51:56;101017.09;;;10.85;94.42
54248;BME280;40161;39.768;2.722;2023-03-18T04:54:22;101009.13;;;10.61;95.11
54248;BME280;40161;39.768;2.722;2023-03-18T04:56:47;101014.88;;;10.56;96.86
54248;BME280;40161;39.768;2.722;2023-03-18T04:59:13;101014.44;;;10.54;98.14
54248;BME280;40161;39.768;2.722;2023-03-18T05:01:38;101008.81;;;10.47;98.93
54248;BME280;40161;39.768;2.722;2023-03-18T05:04:04;101020.13;;;10.45;98.70
54248;BME280;40161;39.768;2.722;2023-03-18T05:06:31;101005.28;;;10.65;99.60
54248;BME280;40161;39.768;2.722;2023-03-18T05:08:58;101013.31;;;10.74;97.40
54248;BME280;40161;39.768;2.722;2023-03-18T05:11:25;100995.91;;;10.86;96.09
54248;BME280;40161;39.768;2.722;2023-03-18T05:13:52;100992.81;;;10.87;93.62
54248;BME280;40161;39.768;2.722;2023-03-18T05:16:18;101000.72;;;10.54;93.37
54248;BME280;40161;39.768;2.722;2023-03-18T05:18:43;100997.75;;;10.43;96.20
54248;BME280;40161;39.768;2.722;2023-03-18T05:21:10;101016.34;;;10.34;97.79
54248;BME280;40161;39.768;2.722;2023-03-18T05:23:36;100992.09;;;10.20;98.92
54248;BME280;40161;39.768;2.722;2023-03-18T05:26:02;100979.72;;;10.10;98.91
54248;BME280;40161;39.768;2.722;2023-03-18T05:28:30;101016.34;;;10.34;99.49
54248;BME280;40161;39.768;2.722;2023-03-18T05:30:55;101017.03;;;10.47;99.44
54248;BME280;40161;39.768;2.722;2023-03-18T05:33:21;101017.47;;;10.49;97.39
54248;BME280;40161;39.768;2.722;2023-03-18T05:35:47;101030.38;;;10.48;97.88
54248;BME280;40161;39.768;2.722;2023-03-18T05:38:12;101018.84;;;10.58;97.67
54248;BME280;40161;39.768;2.722;2023-03-18T05:40:39;101023.31;;;10.47;96.18
54248;BME280;40161;39.768;2.722;2023-03-18T05:43:05;101032.44;;;10.19;96.02
54248;BME280;40161;39.768;2.722;2023-03-18T05:45:30;101020.41;;;10.24;99.59
54248;BME280;40161;39.768;2.722;2023-03-18T05:47:56;101029.00;;;10.38;96.86
54248;BME280;40161;39.768;2.722;2023-03-18T05:50:35;101022.84;;;10.26;97.13
54248;BME280;40161;39.768;2.722;2023-03-18T05:53:01;101034.81;;;10.21;97.69
54248;BME280;40161;39.768;2.722;2023-03-18T05:55:28;100995.41;;;9.78;97.12
54248;BME280;40161;39.768;2.722;2023-03-18T05:57:55;101017.50;;;10.01;99.42
54248;BME280;40161;39.768;2.722;2023-03-18T06:00:20;101033.59;;;9.87;98.67
54248;BME280;40161;39.768;2.722;2023-03-18T06:02:46;101036.78;;;9.89;100.00
54248;BME280;40161;39.768;2.722;2023-03-18T06:05:13;101042.19;;;10.01;100.00
54248;BME280;40161;39.768;2.722;2023-03-18T06:07:38;101050.78;;;9.99;100.00
54248;BME280;40161;39.768;2.722;2023-03-18T06:10:05;101051.56;;;9.84;100.00
54248;BME280;40161;39.768;2.722;2023-03-18T06:12:31;101056.19;;;10.12;100.00
54248;BME280;40161;39.768;2.722;2023-03-18T06:14:56;101048.47;;;10.33;99.90
54248;BME280;40161;39.768;2.722;2023-03-18T06:17:22;101058.22;;;10.31;97.87
54248;BME280;40161;39.768;2.722;2023-03-18T06:19:48;101052.34;;;10.16;98.04
54248;BME280;40161;39.768;2.722;2023-03-18T06:22:14;101040.59;;;10.00;98.75
54248;BME280;40161;39.768;2.722;2023-03-18T06:24:41;101042.53;;;9.99;100.00
54248;BME280;40161;39.768;2.722;2023-03-18T06:27:07;101044.84;;;9.97;100.00
54248;BME280;40161;39.768;2.722;2023-03-18T06:29:33;101054.84;;;9.90;100.00
54248;BME280;40161;39.768;2.722;2023-03-18T06:31:59;101049.72;;;9.88;100.00
54248;BME280;40161;39.768;2.722;2023-03-18T06:34:25;101063.16;;;10.09;100.00
54248;BME280;40161;39.768;2.722;2023-03-18T06:36:50;101070.44;;;10.33;100.00
54248;BME280;40161;39.768;2.722;2023-03-18T06:39:17;101068.28;;;10.42;98.76
54248;BME280;40161;39.768;2.722;2023-03-18T06:41:44;101078.78;;;10.56;98.73
54248;BME280;40161;39.768;2.722;2023-03-18T06:44:11;101081.63;;;10.60;97.75
54248;BME280;40161;39.768;2.722;2023-03-18T06:46:38;101074.28;;;10.64;96.55
54248;BME280;40161;39.768;2.722;2023-03-18T06:49:04;101087.78;;;10.73;97.63
54248;BME280;40161;39.768;2.722;2023-03-18T06:51:30;101089.75;;;10.72;96.63
54248;BME280;40161;39.768;2.722;2023-03-18T06:53:57;101083.78;;;10.70;97.36
54248;BME280;40161;39.768;2.722;2023-03-18T06:56:23;101081.56;;;10.76;98.76
54248;BME280;40161;39.768;2.722;2023-03-18T06:58:50;101079.72;;;10.80;97.92
54248;BME280;40161;39.768;2.722;2023-03-18T07:01:16;101081.81;;;10.86;97.97
54248;BME280;40161;39.768;2.722;2023-03-18T07:03:41;101079.81;;;11.03;98.00
54248;BME280;40161;39.768;2.722;2023-03-18T07:06:08;101082.25;;;11.08;96.48
54248;BME280;40161;39.768;2.722;2023-03-18T07:08:34;101088.63;;;10.92;96.32
54248;BME280;40161;39.768;2.722;2023-03-18T07:11:00;101085.56;;;10.78;100.00
54248;BME280;40161;39.768;2.722;2023-03-18T07:13:26;101090.97;;;10.75;99.76
54248;BME280;40161;39.768;2.722;2023-03-18T07:15:53;101092.94;;;10.74;100.00
54248;BME280;40161;39.768;2.722;2023-03-18T07:18:21;101104.25;;;10.73;100.00
54248;BME280;40161;39.768;2.722;2023-03-18T07:20:47;101117.19;;;10.72;100.00
54248;BME280;40161;39.768;2.722;2023-03-18T07:23:12;101125.50;;;10.76;100.00
54248;BME280;40161;39.768;2.722;2023-03-18T07:25:39;101135.78;;;10.79;100.00
54248;BME280;40161;39.768;2.722;2023-03-18T07:28:04;101124.69;;;10.91;99.80
54248;BME280;40161;39.768;2.722;2023-03-18T07:30:30;101134.25;;;11.16;98.81
54248;BME280;40161;39.768;2.722;2023-03-18T07:32:55;101131.72;;;11.27;97.60
54248;BME280;40161;39.768;2.722;2023-03-18T07:35:21;101130.50;;;11.25;96.26
54248;BME280;40161;39.768;2.722;2023-03-18T07:37:47;101125.38;;;11.23;97.86
54248;BME280;40161;39.768;2.722;2023-03-18T07:40:13;101122.47;;;11.16;98.43
54248;BME280;40161;39.768;2.722;2023-03-18T07:42:39;101123.97;;;11.13;99.95
54248;BME280;40161;39.768;2.722;2023-03-18T07:45:05;101094.81;;;10.89;100.00
54248;BME280;40161;39.768;2.722;2023-03-18T07:47:32;101138.97;;;11.16;100.00
54248;BME280;40161;39.768;2.722;2023-03-18T07:49:57;101139.81;;;11.20;100.00
54248;BME280;40161;39.768;2.722;2023-03-18T07:52:23;101149.88;;;11.32;100.00
54248;BME280;40161;39.768;2.722;2023-03-18T07:54:50;101165.78;;;11.42;99.99
54248;BME280;40161;39.768;2.722;2023-03-18T07:57:15;101177.38;;;11.51;100.00
54248;BME280;40161;39.768;2.722;2023-03-18T07:59:41;101168.84;;;11.56;99.81
54248;BME280;40161;39.768;2.722;2023-03-18T08:02:08;101164.88;;;11.54;99.27
54248;BME280;40161;39.768;2.722;2023-03-18T08:04:35;101176.34;;;11.59;99.08
54248;BME280;40161;39.768;2.722;2023-03-18T08:07:00;101165.09;;;11.64;99.83
54248;BME280;40161;39.768;2.722;2023-03-18T08:09:27;101171.03;;;11.86;98.24
54248;BME280;40161;39.768;2.722;2023-03-18T08:11:53;101188.59;;;12.01;97.56
54248;BME280;40161;39.768;2.722;2023-03-18T08:14:18;101197.72;;;12.05;95.76
54248;BME280;40161;39.768;2.722;2023-03-18T08:16:44;101202.25;;;12.17;96.53
54248;BME280;40161;39.768;2.722;2023-03-18T08:19:10;101201.25;;;12.28;95.92
54248;BME280;40161;39.768;2.722;2023-03-18T08:21:36;101216.81;;;12.40;95.01
54248;BME280;40161;39.768;2.722;2023-03-18T08:24:01;101208.75;;;12.51;94.60
54248;BME280;40161;39.768;2.722;2023-03-18T08:26:27;101212.13;;;12.64;94.84
54248;BME280;40161;39.768;2.722;2023-03-18T08:28:53;101192.16;;;12.70;93.78
54248;BME280;40161;39.768;2.722;2023-03-18T08:31:19;101184.75;;;12.74;94.30
54248;BME280;40161;39.768;2.722;2023-03-18T08:33:44;101205.47;;;12.91;94.18
54248;BME280;40161;39.768;2.722;2023-03-18T08:36:10;101209.13;;;12.99;92.67
54248;BME280;40161;39.768;2.722;2023-03-18T08:38:36;101213.63;;;13.11;91.69
54248;BME280;40161;39.768;2.722;2023-03-18T08:41:02;101198.31;;;13.13;90.33
54248;BME280;40161;39.768;2.722;2023-03-18T08:43:28;101196.41;;;13.17;89.17
54248;BME280;40161;39.768;2.722;2023-03-18T08:45:54;101204.59;;;13.37;87.68
54248;BME280;40161;39.768;2.722;2023-03-18T08:48:22;101202.34;;;13.46;88.00
54248;BME280;40161;39.768;2.722;2023-03-18T08:50:48;101194.56;;;13.55;87.10
54248;BME280;40161;39.768;2.722;2023-03-18T08:53:15;101195.09;;;13.64;85.45
54248;BME280;40161;39.768;2.722;2023-03-18T08:55:40;101182.88;;;13.65;83.92
54248;BME280;40161;39.768;2.722;2023-03-18T08:58:07;101205.22;;;13.87;83.60
54248;BME280;40161;39.768;2.722;2023-03-18T09:00:35;101175.50;;;13.73;80.92
54248;BME280;40161;39.768;2.722;2023-03-18T09:03:02;101200.19;;;13.96;78.96
54248;BME280;40161;39.768;2.722;2023-03-18T09:05:28;101202.72;;;14.12;78.46
54248;BME280;40161;39.768;2.722;2023-03-18T09:07:55;101214.63;;;14.19;77.53
54248;BME280;40161;39.768;2.722;2023-03-18T09:10:21;101207.59;;;14.25;77.47
54248;BME280;40161;39.768;2.722;2023-03-18T09:12:46;101194.56;;;14.26;77.08
54248;BME280;40161;39.768;2.722;2023-03-18T09:15:14;101203.38;;;14.39;77.35
54248;BME280;40161;39.768;2.722;2023-03-18T09:17:40;101208.53;;;14.44;77.71
54248;BME280;40161;39.768;2.722;2023-03-18T09:20:08;101193.50;;;14.38;78.02
54248;BME280;40161;39.768;2.722;2023-03-18T09:22:35;101199.94;;;14.49;78.10
54248;BME280;40161;39.768;2.722;2023-03-18T09:25:01;101190.50;;;14.50;77.77
54248;BME280;40161;39.768;2.722;2023-03-18T09:27:27;101203.16;;;14.55;76.20
54248;BME280;40161;39.768;2.722;2023-03-18T09:29:52;101207.09;;;14.54;76.05
54248;BME280;40161;39.768;2.722;2023-03-18T09:32:18;101199.25;;;14.59;74.54
54248;BME280;40161;39.768;2.722;2023-03-18T09:34:44;101194.50;;;14.56;75.23
54248;BME280;40161;39.768;2.722;2023-03-18T09:37:10;101194.94;;;14.65;74.47
54248;BME280;40161;39.768;2.722;2023-03-18T09:39:38;101191.88;;;14.74;74.69
54248;BME280;40161;39.768;2.722;2023-03-18T09:44:43;101162.19;;;14.64;73.65
54248;BME280;40161;39.768;2.722;2023-03-18T09:47:38;101185.28;;;14.93;73.67
54248;BME280;40161;39.768;2.722;2023-03-18T09:50:55;101182.16;;;14.98;73.17
54248;BME280;40161;39.768;2.722;2023-03-18T09:53:20;101183.41;;;15.04;73.23
54248;BME280;40161;39.768;2.722;2023-03-18T09:55:58;101165.94;;;14.93;71.98
54248;BME280;40161;39.768;2.722;2023-03-18T09:58:31;101166.03;;;15.07;71.65
54248;BME280;40161;39.768;2.722;2023-03-18T10:01:03;101181.91;;;15.17;70.59
54248;BME280;40161;39.768;2.722;2023-03-18T10:03:37;101179.94;;;15.18;69.15
54248;BME280;40161;39.768;2.722;2023-03-18T10:06:06;101156.16;;;15.10;69.74
54248;BME280;40161;39.768;2.722;2023-03-18T10:12:03;101170.44;;;15.19;68.71
54248;BME280;40161;39.768;2.722;2023-03-18T10:14:40;101160.19;;;15.23;69.01
54248;BME280;40161;39.768;2.722;2023-03-18T10:17:17;101149.47;;;15.07;68.15
54248;BME280;40161;39.768;2.722;2023-03-18T10:19:51;101178.44;;;15.31;67.99
54248;BME280;40161;39.768;2.722;2023-03-18T10:24:57;101188.34;;;15.43;68.02
54248;BME280;40161;39.768;2.722;2023-03-18T10:33:40;101195.97;;;15.68;67.58
54248;BME280;40161;39.768;2.722;2023-03-18T10:36:21;101184.19;;;15.81;68.06
54248;BME280;40161;39.768;2.722;2023-03-18T10:38:51;101181.84;;;15.90;69.32
54248;BME280;40161;39.768;2.722;2023-03-18T10:41:47;101195.69;;;15.98;68.44
54248;BME280;40161;39.768;2.722;2023-03-18T10:44:28;101183.06;;;16.00;69.86
54248;BME280;40161;39.768;2.722;2023-03-18T10:47:02;101202.47;;;16.14;69.35
54248;BME280;40161;39.768;2.722;2023-03-18T10:49:37;101192.97;;;16.16;69.96
54248;BME280;40161;39.768;2.722;2023-03-18T10:52:06;101199.69;;;16.14;69.24
54248;BME280;40161;39.768;2.722;2023-03-18T10:54:41;101189.00;;;16.13;69.35
54248;BME280;40161;39.768;2.722;2023-03-18T10:57:18;101185.44;;;16.12;71.09
54248;BME280;40161;39.768;2.722;2023-03-18T10:59:44;101182.28;;;16.14;73.01
54248;BME280;40161;39.768;2.722;2023-03-18T11:02:20;101175.91;;;16.03;76.41
54248;BME280;40161;39.768;2.722;2023-03-18T11:05:01;101192.16;;;16.08;78.26
54248;BME280;40161;39.768;2.722;2023-03-18T11:07:29;101206.00;;;16.04;77.30
54248;BME280;40161;39.768;2.722;2023-03-18T11:10:10;101171.91;;;15.79;75.19
54248;BME280;40161;39.768;2.722;2023-03-18T11:12:36;101188.19;;;15.98;74.98
54248;BME280;40161;39.768;2.722;2023-03-18T11:15:09;101186.97;;;15.96;76.32
54248;BME280;40161;39.768;2.722;2023-03-18T11:17:35;101199.25;;;16.02;76.72
54248;BME280;40161;39.768;2.722;2023-03-18T11:22:44;101209.56;;;16.08;77.79
54248;BME280;40161;39.768;2.722;2023-03-18T11:25:29;101199.69;;;16.07;78.21
54248;BME280;40161;39.768;2.722;2023-03-18T11:28:01;101203.63;;;16.13;77.82
54248;BME280;40161;39.768;2.722;2023-03-18T11:30:29;101203.63;;;16.10;78.59
54248;BME280;40161;39.768;2.722;2023-03-18T11:32:58;101202.81;;;16.09;78.71
54248;BME280;40161;39.768;2.722;2023-03-18T11:35:40;101166.41;;;15.89;78.09
54248;BME280;40161;39.768;2.722;2023-03-18T11:38:35;101209.97;;;16.18;78.62
54248;BME280;40161;39.768;2.722;2023-03-18T11:41:27;101196.91;;;16.07;78.52
54248;BME280;40161;39.768;2.722;2023-03-18T11:44:36;101192.94;;;16.01;78.81
54248;BME280;40161;39.768;2.722;2023-03-18T11:46:54;101208.78;;;16.08;79.33
54248;BME280;40161;39.768;2.722;2023-03-18T11:49:26;101168.00;;;15.90;79.73
54248;BME280;40161;39.768;2.722;2023-03-18T11:57:23;101199.72;;;16.36;80.55
54248;BME280;40161;39.768;2.722;2023-03-18T12:08:29;101203.69;;;16.60;79.64
54248;BME280;40161;39.768;2.722;2023-03-18T12:11:09;101193.00;;;16.62;78.37
54248;BME280;40161;39.768;2.722;2023-03-18T12:16:23;101187.84;;;16.68;77.77
54248;BME280;40161;39.768;2.722;2023-03-18T12:41:21;101116.91;;;17.09;74.18
54248;BME280;40161;39.768;2.722;2023-03-18T12:44:20;101139.06;;;17.31;73.97
54248;BME280;40161;39.768;2.722;2023-03-18T12:49:32;101133.84;;;17.37;73.49
54248;BME280;40161;39.768;2.722;2023-03-18T12:52:10;101119.19;;;17.36;74.53
54248;BME280;40161;39.768;2.722;2023-03-18T12:54:47;101119.63;;;17.31;73.80
54248;BME280;40161;39.768;2.722;2023-03-18T13:00:13;101093.47;;;17.28;73.89
54248;BME280;40161;39.768;2.722;2023-03-18T13:10:44;101093.06;;;17.33;74.51
54248;BME280;40161;39.768;2.722;2023-03-18T13:13:12;101050.00;;;17.07;74.84
54248;BME280;40161;39.768;2.722;2023-03-18T13:18:34;101082.03;;;17.19;74.95
54248;BME280;40161;39.768;2.722;2023-03-18T13:21:03;101076.50;;;17.16;75.83
54248;BME280;40161;39.768;2.722;2023-03-18T13:31:42;101083.69;;;16.95;76.79
54248;BME280;40161;39.768;2.722;2023-03-18T13:37:39;101079.38;;;16.83;78.01
54248;BME280;40161;39.768;2.722;2023-03-18T13:43:01;101037.06;;;16.47;78.57
54248;BME280;40161;39.768;2.722;2023-03-18T13:45:38;101074.66;;;16.63;78.22
54248;BME280;40161;39.768;2.722;2023-03-18T13:48:19;101073.06;;;16.54;78.58
54248;BME280;40161;39.768;2.722;2023-03-18T13:50:48;101060.44;;;16.39;78.45
54248;BME280;40161;39.768;2.722;2023-03-18T13:53:22;101051.38;;;16.28;78.68
54248;BME280;40161;39.768;2.722;2023-03-18T13:56:01;101071.91;;;16.37;79.02
54248;BME280;40161;39.768;2.722;2023-03-18T13:58:32;101075.09;;;16.36;79.00
54248;BME280;40161;39.768;2.722;2023-03-18T14:13:44;101084.56;;;16.21;79.39
54248;BME280;40161;39.768;2.722;2023-03-18T14:16:15;101087.75;;;16.16;80.14
54248;BME280;40161;39.768;2.722;2023-03-18T14:18:55;101083.00;;;16.16;79.46
54248;BME280;40161;39.768;2.722;2023-03-18T14:21:28;101087.34;;;16.21;78.76
54248;BME280;40161;39.768;2.722;2023-03-18T14:24:11;101080.22;;;16.20;79.19
54248;BME280;40161;39.768;2.722;2023-03-18T14:26:37;101082.63;;;16.28;78.47
54248;BME280;40161;39.768;2.722;2023-03-18T14:39:39;101075.06;;;16.43;78.56
54248;BME280;40161;39.768;2.722;2023-03-18T14:42:14;101077.44;;;16.45;77.76
54248;BME280;40161;39.768;2.722;2023-03-18T14:44:52;101059.66;;;16.46;77.88
54248;BME280;40161;39.768;2.722;2023-03-18T14:47:49;101076.25;;;16.56;78.14
54248;BME280;40161;39.768;2.722;2023-03-18T14:50:34;101083.75;;;16.59;77.34
54248;BME280;40161;39.768;2.722;2023-03-18T14:55:34;101078.63;;;16.54;77.63
54248;BME280;40161;39.768;2.722;2023-03-18T14:58:01;101074.28;;;16.50;76.84
54248;BME280;40161;39.768;2.722;2023-03-18T15:00:31;101062.00;;;16.44;77.28